Time;durP1;ratioP1;P1;durP2;ratioP2;P2;SDS_P1;SDS_P2;PMS_P1;PMS_P2;Temp;Humidity;BMP_temperature;BMP_pressure;BME280_temperature;BME280_humidity;BME280_pressure;Samples;Min_cycle;Max_cycle;Signal;HPM_P1;HPM_P2
2023/03/07 00:01:20;;;;;;;32.60;19.30;;;1.60;99.90;;;;;;5075132;28;20492;-64
2023/03/07 00:03:47;;;;;;;30.30;20.40;;;1.60;99.90;;;;;;5072979;28;20467;-63
2023/03/07 00:06:14;;;;;;;29.03;19.43;;;1.70;99.90;;;;;;5074026;28;20460;-63
2023/03/07 00:08:42;;;;;;;31.73;19.93;;;1.70;99.90;;;;;;5075262;28;20748;-63
2023/03/07 00:11:11;;;;;;;29.20;17.90;;;1.80;99.90;;;;;;5075360;28;20741;-63
2023/03/07 00:13:38;;;;;;;32.53;19.83;;;1.80;99.90;;;;;;5073173;28;20551;-62
2023/03/07 00:16:07;;;;;;;32.10;20.17;;;1.90;99.90;;;;;;5075439;28;20460;-59
2023/03/07 00:18:35;;;;;;;30.30;18.60;;;1.90;99.90;;;;;;5072065;28;20481;-61
2023/03/07 00:21:05;;;;;;;27.30;16.50;;;1.90;99.90;;;;;;5074774;28;20453;-62
2023/03/07 00:23:33;;;;;;;23.60;16.97;;;2.00;99.90;;;;;;5075164;28;20453;-62
2023/03/07 00:26:01;;;;;;;25.47;17.17;;;2.10;99.90;;;;;;5075482;28;20469;-62
2023/03/07 00:28:30;;;;;;;26.03;16.60;;;2.30;99.90;;;;;;5074814;28;20468;-62
2023/03/07 00:31:00;;;;;;;25.00;15.93;;;2.40;99.90;;;;;;5072440;28;20532;-61
2023/03/07 00:33:28;;;;;;;26.57;17.00;;;2.50;99.90;;;;;;5075447;28;20457;-64
2023/03/07 00:35:56;;;;;;;24.97;16.07;;;2.50;99.90;;;;;;5072875;28;20454;-65
2023/03/07 00:38:23;;;;;;;22.77;14.83;;;2.60;99.90;;;;;;5075056;28;20461;-64
2023/03/07 00:40:58;;;;;;;22.83;13.93;;;2.60;99.90;;;;;;5074679;28;20465;-65
2023/03/07 00:43:25;;;;;;;22.47;15.53;;;2.60;99.90;;;;;;5074603;28;20491;-64
2023/03/07 00:45:54;;;;;;;23.27;15.33;;;2.70;99.90;;;;;;5075643;28;20457;-66
2023/03/07 00:48:22;;;;;;;23.37;15.30;;;2.80;99.90;;;;;;5072733;28;20454;-65
2023/03/07 00:50:49;;;;;;;20.80;15.03;;;2.80;99.90;;;;;;5077201;28;20468;-65
2023/03/07 00:53:16;;;;;;;18.33;13.23;;;2.80;99.90;;;;;;5077875;28;20452;-65
2023/03/07 00:55:53;;;;;;;19.20;14.00;;;2.80;99.90;;;;;;5078767;28;20465;-66
2023/03/07 00:58:20;;;;;;;17.93;12.90;;;2.80;99.90;;;;;;5077889;28;20457;-65
2023/03/07 01:00:47;;;;;;;20.60;13.57;;;2.80;99.90;;;;;;5078462;28;20457;-64
2023/03/07 01:03:16;;;;;;;17.70;14.27;;;2.80;99.90;;;;;;5078871;28;20779;-61
2023/03/07 01:05:43;;;;;;;17.67;12.80;;;2.90;99.90;;;;;;5079549;28;20468;-65
2023/03/07 01:08:10;;;;;;;19.60;13.80;;;2.80;99.90;;;;;;5078730;28;20457;-65
2023/03/07 01:10:37;;;;;;;15.73;13.37;;;2.90;99.90;;;;;;5077986;28;20519;-65
2023/03/07 01:13:05;;;;;;;17.93;13.90;;;2.90;99.90;;;;;;5078639;28;20833;-62
2023/03/07 01:15:32;;;;;;;18.60;12.47;;;2.90;99.90;;;;;;5078714;28;20453;-66
2023/03/07 01:17:59;;;;;;;19.87;14.10;;;2.90;99.90;;;;;;5078153;28;20469;-65
2023/03/07 01:20:30;;;;;;;19.77;13.63;;;2.90;99.90;;;;;;5079140;28;20467;-65
2023/03/07 01:22:57;;;;;;;16.97;13.47;;;2.90;99.90;;;;;;5079035;28;20489;-65
2023/03/07 01:25:24;;;;;;;17.33;12.50;;;3.00;99.90;;;;;;5079281;28;20871;-65
2023/03/07 01:27:54;;;;;;;17.70;13.40;;;3.00;99.90;;;;;;5079788;28;20885;-64
2023/03/07 01:30:21;;;;;;;19.63;14.03;;;3.00;99.90;;;;;;5079615;28;20465;-64
2023/03/07 01:32:54;;;;;;;19.00;14.60;;;2.90;99.90;;;;;;5078342;28;20457;-66
2023/03/07 01:35:21;;;;;;;15.97;13.70;;;3.00;99.90;;;;;;5079383;28;20465;-66
2023/03/07 01:37:51;;;;;;;16.17;12.87;;;3.00;99.90;;;;;;5079166;28;20769;-66
2023/03/07 01:40:18;;;;;;;17.37;13.07;;;3.00;99.90;;;;;;5079816;28;20461;-64
2023/03/07 01:42:45;;;;;;;17.10;13.70;;;3.00;99.90;;;;;;5079345;28;20854;-64
2023/03/07 01:45:50;;;;;;;17.90;13.80;;;3.00;99.90;;;;;;5080310;28;20462;-65
2023/03/07 01:48:17;;;;;;;18.10;13.40;;;3.10;99.90;;;;;;5079139;28;20469;-64
2023/03/07 01:50:44;;;;;;;17.93;13.40;;;3.10;99.90;;;;;;5080040;28;20461;-63
2023/03/07 01:53:14;;;;;;;18.13;13.63;;;3.10;99.90;;;;;;5078729;28;20464;-64
2023/03/07 01:55:42;;;;;;;17.10;13.43;;;3.00;99.90;;;;;;5078349;28;20560;-65
2023/03/07 01:58:12;;;;;;;16.93;13.00;;;3.00;99.90;;;;;;5079391;28;20884;-68
2023/03/07 02:00:40;;;;;;;16.23;12.00;;;3.10;99.90;;;;;;5078538;28;20472;-66
2023/03/07 02:03:12;;;;;;;16.83;12.60;;;3.10;99.90;;;;;;5077968;28;20922;-66
2023/03/07 02:05:43;;;;;;;13.20;11.80;;;3.10;99.90;;;;;;5079667;28;20480;-62
2023/03/07 02:08:14;;;;;;;16.53;12.20;;;3.10;99.90;;;;;;5079548;28;20472;-66
2023/03/07 02:10:43;;;;;;;13.50;12.00;;;3.10;99.90;;;;;;5079527;28;20886;-65
2023/03/07 02:13:10;;;;;;;16.93;12.93;;;3.10;99.90;;;;;;5078875;28;20468;-64
2023/03/07 02:15:38;;;;;;;15.37;12.83;;;3.10;99.90;;;;;;5077913;28;20960;-66
2023/03/07 02:18:06;;;;;;;15.10;12.53;;;3.20;99.90;;;;;;5078485;28;20481;-65
2023/03/07 02:20:43;;;;;;;14.60;11.40;;;3.20;99.90;;;;;;5079354;28;20890;-64
2023/03/07 02:23:20;;;;;;;13.60;11.70;;;3.20;99.90;;;;;;5078948;28;20539;-64
2023/03/07 02:25:54;;;;;;;15.93;12.27;;;3.20;99.90;;;;;;5078329;28;20467;-65
2023/03/07 02:28:24;;;;;;;18.20;12.37;;;3.20;99.90;;;;;;5059093;28;20436;-64
2023/03/07 02:30:56;;;;;;;13.13;11.07;;;3.10;99.90;;;;;;5058516;28;20469;-66
2023/03/07 02:33:23;;;;;;;11.90;9.53;;;3.10;99.90;;;;;;5058219;28;20922;-65
2023/03/07 02:35:55;;;;;;;12.70;11.23;;;3.10;99.90;;;;;;5070005;28;20917;-65
2023/03/07 02:38:24;;;;;;;12.47;10.03;;;3.10;99.90;;;;;;5078485;28;20902;-65
2023/03/07 02:40:52;;;;;;;10.80;9.63;;;3.10;99.90;;;;;;5077528;28;20458;-66
2023/03/07 02:43:25;;;;;;;12.40;10.30;;;3.10;99.90;;;;;;5077445;28;20967;-66
2023/03/07 02:45:57;;;;;;;10.17;9.10;;;3.10;99.90;;;;;;5077077;28;20466;-64
2023/03/07 02:48:24;;;;;;;10.03;8.40;;;3.10;99.90;;;;;;5077214;28;20449;-65
2023/03/07 02:50:53;;;;;;;9.67;8.10;;;3.10;99.90;;;;;;5076033;28;20468;-65
2023/03/07 02:53:24;;;;;;;11.13;9.40;;;3.10;99.90;;;;;;5076597;28;20557;-65
2023/03/07 02:55:54;;;;;;;10.43;8.77;;;3.00;99.90;;;;;;5077178;28;20838;-65
2023/03/07 02:58:21;;;;;;;12.00;9.50;;;3.10;99.90;;;;;;5077544;28;20465;-64
2023/03/07 03:00:49;;;;;;;11.27;8.63;;;3.10;99.90;;;;;;5077646;28;20457;-65
2023/03/07 03:03:16;;;;;;;10.20;9.07;;;3.10;99.90;;;;;;5077042;28;20802;-66
2023/03/07 03:05:44;;;;;;;11.07;9.00;;;3.10;99.90;;;;;;5077390;28;20466;-65
2023/03/07 03:08:11;;;;;;;11.03;8.97;;;3.10;99.90;;;;;;5077882;28;20461;-65
2023/03/07 03:10:38;;;;;;;10.23;7.20;;;3.00;99.90;;;;;;5077333;28;20882;-65
2023/03/07 03:13:06;;;;;;;9.70;7.70;;;3.00;99.90;;;;;;5077247;28;20453;-66
2023/03/07 03:15:33;;;;;;;7.50;6.00;;;3.10;99.90;;;;;;5077046;28;20489;-65
2023/03/07 03:18:02;;;;;;;7.67;6.30;;;3.10;99.90;;;;;;5077118;28;20485;-65
2023/03/07 03:20:29;;;;;;;9.20;6.77;;;3.10;99.90;;;;;;5076745;28;20890;-65
2023/03/07 03:22:56;;;;;;;8.80;7.40;;;3.10;99.90;;;;;;5075952;28;20940;-65
2023/03/07 03:25:24;;;;;;;9.20;8.30;;;3.10;99.90;;;;;;5077803;28;20465;-64
2023/03/07 03:27:51;;;;;;;7.70;6.90;;;3.10;99.90;;;;;;5077398;28;20466;-64
2023/03/07 03:30:18;;;;;;;7.93;7.10;;;3.10;99.90;;;;;;5077181;28;20480;-66
2023/03/07 03:32:45;;;;;;;11.00;8.90;;;3.10;99.90;;;;;;5076451;28;20890;-64
2023/03/07 03:35:14;;;;;;;11.80;9.23;;;3.10;99.90;;;;;;5077136;28;20476;-66
2023/03/07 03:37:42;;;;;;;9.97;8.97;;;3.10;99.90;;;;;;5077328;28;20461;-65
2023/03/07 03:40:13;;;;;;;9.63;8.60;;;3.10;99.90;;;;;;5077245;28;20462;-64
2023/03/07 03:42:42;;;;;;;9.93;8.93;;;3.10;99.90;;;;;;5077152;28;20843;-65
2023/03/07 03:45:10;;;;;;;11.43;10.00;;;3.10;99.90;;;;;;5077553;28;20472;-64
2023/03/07 03:47:37;;;;;;;10.90;9.80;;;3.20;99.90;;;;;;5076421;28;20466;-65
2023/03/07 03:50:05;;;;;;;11.33;9.57;;;3.20;99.90;;;;;;5077227;28;20461;-64
2023/03/07 03:52:35;;;;;;;12.93;10.33;;;3.20;99.90;;;;;;5075221;28;20493;-65
2023/03/07 03:55:02;;;;;;;14.57;11.60;;;3.20;99.90;;;;;;5076562;28;20465;-63
2023/03/07 03:57:29;;;;;;;13.60;12.17;;;3.30;99.90;;;;;;5077147;28;21107;-66
2023/03/07 03:59:56;;;;;;;16.60;13.13;;;3.30;99.90;;;;;;5077116;28;20476;-66
2023/03/07 04:02:24;;;;;;;16.97;14.43;;;3.30;99.90;;;;;;5076204;28;20482;-65
2023/03/07 04:04:51;;;;;;;18.30;14.30;;;3.30;99.90;;;;;;5075825;28;20461;-67
2023/03/07 04:07:18;;;;;;;19.37;15.40;;;3.30;99.90;;;;;;5076452;28;20466;-68
2023/03/07 04:09:47;;;;;;;17.53;13.80;;;3.30;99.90;;;;;;5077022;28;20890;-66
2023/03/07 04:12:15;;;;;;;14.90;13.20;;;3.40;99.90;;;;;;5077228;28;20497;-67
2023/03/07 04:14:42;;;;;;;15.30;12.97;;;3.40;99.90;;;;;;5076278;28;20461;-65
2023/03/07 04:17:09;;;;;;;22.00;14.10;;;3.30;99.90;;;;;;5076207;28;20462;-65
2023/03/07 04:19:37;;;;;;;15.43;12.30;;;3.40;99.90;;;;;;5076667;28;20491;-66
2023/03/07 04:22:04;;;;;;;17.77;13.97;;;3.40;99.90;;;;;;5076889;28;20808;-64
2023/03/07 04:24:31;;;;;;;16.03;12.40;;;3.30;99.90;;;;;;5076819;28;20762;-65
2023/03/07 04:27:00;;;;;;;15.03;11.80;;;3.30;99.90;;;;;;5080443;28;20461;-63
2023/03/07 04:29:27;;;;;;;15.13;10.97;;;3.30;99.90;;;;;;5080300;28;20898;-66
2023/03/07 04:31:54;;;;;;;13.83;11.43;;;3.30;99.90;;;;;;5079249;28;20463;-65
2023/03/07 04:34:21;;;;;;;13.80;11.90;;;3.30;99.90;;;;;;5079206;28;20457;-67
2023/03/07 04:36:48;;;;;;;13.90;11.20;;;3.30;99.90;;;;;;5080454;28;20893;-65
2023/03/07 04:39:15;;;;;;;12.13;10.63;;;3.30;99.90;;;;;;5080553;28;20457;-66
2023/03/07 04:41:42;;;;;;;15.93;12.03;;;3.30;99.90;;;;;;5080591;28;20905;-66
2023/03/07 04:44:11;;;;;;;12.73;10.90;;;3.30;99.90;;;;;;5080206;28;21000;-65
2023/03/07 04:46:38;;;;;;;14.07;11.67;;;3.30;99.90;;;;;;5080086;28;20746;-64
2023/03/07 04:49:05;;;;;;;13.30;11.90;;;3.30;99.90;;;;;;5079803;28;20457;-66
2023/03/07 04:51:32;;;;;;;15.07;11.80;;;3.30;99.90;;;;;;5079605;28;20467;-66
2023/03/07 04:53:59;;;;;;;13.40;10.47;;;3.30;99.90;;;;;;5079915;28;20457;-66
2023/03/07 04:56:26;;;;;;;13.70;11.07;;;3.30;99.90;;;;;;5079949;28;20461;-65
2023/03/07 04:58:53;;;;;;;10.87;9.53;;;3.30;99.90;;;;;;5079706;28;20472;-66
2023/03/07 05:01:22;;;;;;;13.80;11.23;;;3.30;99.90;;;;;;5076647;28;20465;-66
2023/03/07 05:03:49;;;;;;;12.83;10.90;;;3.20;99.90;;;;;;5080228;28;20493;-66
2023/03/07 05:06:16;;;;;;;14.53;11.70;;;3.20;99.90;;;;;;5073427;28;20461;-68
2023/03/07 05:08:44;;;;;;;12.47;11.10;;;3.30;99.90;;;;;;5082795;28;20462;-66
2023/03/07 05:11:11;;;;;;;13.60;11.10;;;3.30;99.90;;;;;;5078866;28;20457;-65
2023/03/07 05:13:38;;;;;;;13.47;10.20;;;3.20;99.90;;;;;;5090402;28;20521;-64
2023/03/07 05:16:06;;;;;;;13.20;11.60;;;3.20;99.90;;;;;;5083400;28;20456;-66
2023/03/07 05:18:34;;;;;;;14.10;11.40;;;3.20;99.90;;;;;;5078288;28;20956;-66
2023/03/07 05:21:01;;;;;;;13.17;9.97;;;3.20;99.90;;;;;;5070751;28;20461;-66
2023/03/07 05:23:29;;;;;;;14.60;12.20;;;3.20;99.90;;;;;;5078445;28;20519;-66
2023/03/07 05:25:56;;;;;;;13.30;11.73;;;3.20;99.90;;;;;;5079427;28;20452;-66
2023/03/07 05:28:23;;;;;;;13.23;10.77;;;3.10;99.90;;;;;;5078528;28;20460;-66
2023/03/07 05:30:50;;;;;;;12.50;10.53;;;3.20;99.90;;;;;;5077101;28;20908;-65
2023/03/07 05:33:17;;;;;;;15.10;11.20;;;3.20;99.90;;;;;;5078662;28;20453;-65
2023/03/07 05:35:46;;;;;;;14.50;11.80;;;3.10;99.90;;;;;;5072665;28;20500;-65
2023/03/07 05:38:14;;;;;;;14.97;12.50;;;3.10;99.90;;;;;;5072412;28;20449;-65
2023/03/07 05:40:41;;;;;;;16.97;12.20;;;3.20;99.90;;;;;;5074267;28;21060;-65
2023/03/07 05:43:08;;;;;;;14.90;11.00;;;3.20;99.90;;;;;;5070646;28;20493;-67
2023/03/07 05:45:35;;;;;;;15.20;11.93;;;3.20;99.90;;;;;;5074792;28;20460;-64
2023/03/07 05:48:02;;;;;;;15.40;12.00;;;3.20;99.90;;;;;;5073858;28;20890;-64
2023/03/07 05:50:29;;;;;;;18.60;12.33;;;3.10;99.90;;;;;;5071490;28;20469;-65
2023/03/07 05:52:58;;;;;;;15.80;12.17;;;3.10;99.90;;;;;;5074860;28;20535;-66
2023/03/07 05:55:25;;;;;;;12.70;11.10;;;3.10;99.90;;;;;;5076138;28;20462;-68
2023/03/07 05:57:52;;;;;;;13.87;10.53;;;3.10;99.90;;;;;;5075911;28;20464;-66
2023/03/07 06:00:20;;;;;;;13.17;10.53;;;3.10;99.90;;;;;;5075705;28;20461;-67
2023/03/07 06:02:48;;;;;;;15.50;11.43;;;3.10;99.90;;;;;;5074731;28;20458;-66
2023/03/07 06:05:15;;;;;;;14.10;11.87;;;3.10;99.90;;;;;;5073151;28;20454;-66
2023/03/07 06:07:42;;;;;;;15.40;10.97;;;3.10;99.90;;;;;;5075026;28;20466;-67
2023/03/07 06:10:12;;;;;;;14.73;11.90;;;3.20;99.90;;;;;;5072977;28;20473;-66
2023/03/07 06:12:40;;;;;;;14.30;11.93;;;3.10;99.90;;;;;;5077252;28;20462;-66
2023/03/07 06:15:08;;;;;;;16.30;12.27;;;3.10;99.90;;;;;;5077155;28;20460;-66
2023/03/07 06:17:35;;;;;;;17.67;12.60;;;3.20;99.90;;;;;;5077425;28;20473;-65
2023/03/07 06:20:03;;;;;;;14.83;11.50;;;3.20;99.90;;;;;;5077781;28;20460;-64
2023/03/07 06:22:31;;;;;;;15.80;12.73;;;3.20;99.90;;;;;;5077554;28;20833;-65
2023/03/07 06:24:58;;;;;;;12.30;10.40;;;3.20;99.90;;;;;;5077376;28;20485;-64
2023/03/07 06:27:26;;;;;;;14.70;11.37;;;3.20;99.90;;;;;;5076858;28;20457;-66
2023/03/07 06:29:53;;;;;;;14.23;12.07;;;3.30;99.90;;;;;;5075241;28;20540;-65
2023/03/07 06:32:20;;;;;;;16.07;12.37;;;3.30;99.90;;;;;;5076212;28;20454;-66
2023/03/07 06:34:47;;;;;;;16.73;13.07;;;3.20;99.90;;;;;;5076255;28;20461;-66
2023/03/07 06:37:14;;;;;;;17.10;13.53;;;3.20;99.90;;;;;;5075465;28;20464;-66
2023/03/07 06:39:42;;;;;;;16.43;12.90;;;3.20;99.90;;;;;;5073712;28;20461;-66
2023/03/07 06:42:09;;;;;;;19.23;14.77;;;3.30;99.90;;;;;;5074444;28;20945;-66
2023/03/07 06:44:37;;;;;;;17.20;14.17;;;3.30;99.90;;;;;;5075598;28;20483;-66
2023/03/07 06:47:05;;;;;;;18.07;13.50;;;3.20;99.90;;;;;;5076229;28;20964;-66
2023/03/07 06:49:32;;;;;;;18.83;14.87;;;3.30;99.90;;;;;;5076334;28;20457;-62
2023/03/07 06:51:59;;;;;;;17.30;13.73;;;3.30;99.90;;;;;;5076082;28;20468;-65
2023/03/07 06:54:26;;;;;;;16.77;13.40;;;3.30;99.90;;;;;;5076732;28;20453;-64
2023/03/07 06:56:54;;;;;;;17.23;11.80;;;3.30;99.90;;;;;;5075974;28;20458;-65
2023/03/07 06:59:21;;;;;;;14.03;11.63;;;3.20;99.90;;;;;;5075996;28;20487;-65
2023/03/07 07:01:49;;;;;;;14.00;11.73;;;3.30;99.90;;;;;;5075798;28;20457;-65
2023/03/07 07:04:16;;;;;;;15.33;12.67;;;3.20;99.90;;;;;;5076137;28;20485;-65
2023/03/07 07:06:43;;;;;;;15.60;11.97;;;3.20;99.90;;;;;;5076162;28;20453;-64
2023/03/07 07:09:12;;;;;;;17.50;12.90;;;3.20;99.90;;;;;;5075904;28;20468;-66
2023/03/07 07:11:40;;;;;;;15.57;12.63;;;3.20;99.90;;;;;;5076248;28;20461;-65
2023/03/07 07:14:07;;;;;;;14.67;12.50;;;3.20;99.90;;;;;;5075418;28;20519;-66
2023/03/07 07:16:35;;;;;;;19.40;13.40;;;3.20;99.90;;;;;;5076022;28;20461;-65
2023/03/07 07:19:03;;;;;;;16.20;13.00;;;3.20;99.90;;;;;;5077051;28;21040;-67
2023/03/07 07:21:30;;;;;;;18.13;13.37;;;3.20;99.90;;;;;;5077019;28;20461;-65
2023/03/07 07:23:58;;;;;;;18.10;14.50;;;3.30;99.90;;;;;;5075148;28;20481;-65
2023/03/07 07:26:26;;;;;;;20.07;15.40;;;3.30;99.90;;;;;;5075773;28;20440;-65
2023/03/07 07:28:53;;;;;;;21.23;16.17;;;3.30;99.90;;;;;;5075133;28;20477;-67
2023/03/07 07:31:20;;;;;;;22.87;16.73;;;3.30;99.90;;;;;;5075539;28;20469;-66
2023/03/07 07:33:50;;;;;;;23.17;18.53;;;3.30;99.90;;;;;;5075319;28;20901;-66
2023/03/07 07:36:18;;;;;;;20.40;16.07;;;3.40;99.90;;;;;;5076023;28;20457;-66
2023/03/07 07:38:45;;;;;;;17.40;14.03;;;3.40;99.90;;;;;;5075740;28;20476;-66
2023/03/07 07:41:13;;;;;;;22.33;15.47;;;3.40;99.90;;;;;;5072962;28;20468;-65
2023/03/07 07:43:40;;;;;;;20.13;15.23;;;3.40;99.90;;;;;;5077905;28;20489;-66
2023/03/07 07:46:07;;;;;;;18.73;14.50;;;3.40;99.90;;;;;;5074699;28;20469;-66
2023/03/07 07:48:35;;;;;;;21.50;15.23;;;3.40;99.90;;;;;;5077337;28;20539;-66
2023/03/07 07:51:02;;;;;;;20.03;14.90;;;3.40;99.90;;;;;;5078387;28;20472;-65
2023/03/07 07:53:32;;;;;;;20.33;14.80;;;3.40;99.90;;;;;;5075039;28;20910;-66
2023/03/07 07:55:59;;;;;;;21.50;15.07;;;3.50;99.90;;;;;;5075907;28;20458;-65
2023/03/07 07:58:26;;;;;;;20.43;15.80;;;3.50;99.90;;;;;;5074914;28;20469;-66
2023/03/07 08:00:53;;;;;;;26.97;16.63;;;3.60;99.90;;;;;;5058617;28;20504;-66
2023/03/07 08:03:21;;;;;;;25.27;17.33;;;3.60;99.90;;;;;;5061103;28;20461;-66
2023/03/07 08:05:49;;;;;;;26.83;20.13;;;3.60;99.90;;;;;;5070876;28;20771;-65
2023/03/07 08:08:18;;;;;;;23.17;19.60;;;3.60;99.90;;;;;;5081430;28;20472;-66
2023/03/07 08:10:48;;;;;;;27.60;20.60;;;3.70;99.90;;;;;;5080506;28;20470;-65
2023/03/07 08:13:17;;;;;;;27.10;21.00;;;3.70;99.90;;;;;;5081015;28;20467;-64
2023/03/07 08:15:44;;;;;;;23.53;20.83;;;3.70;99.90;;;;;;5079795;28;20898;-65
2023/03/07 08:18:11;;;;;;;23.53;19.53;;;3.70;99.90;;;;;;5069764;28;20950;-65
2023/03/07 08:20:40;;;;;;;28.00;20.03;;;3.70;99.90;;;;;;5078714;28;20777;-65
2023/03/07 08:23:07;;;;;;;24.10;19.40;;;3.70;99.90;;;;;;5079816;28;20466;-66
2023/03/07 08:25:34;;;;;;;27.53;22.03;;;3.70;99.90;;;;;;5079852;28;20500;-65
2023/03/07 08:28:04;;;;;;;24.73;19.67;;;3.70;99.90;;;;;;5079165;28;20458;-65
2023/03/07 08:30:33;;;;;;;22.60;19.17;;;3.80;99.90;;;;;;5080185;28;20465;-65
2023/03/07 08:33:00;;;;;;;22.67;19.77;;;3.70;99.90;;;;;;5077526;28;20772;-64
2023/03/07 08:35:28;;;;;;;22.50;18.47;;;3.80;99.90;;;;;;5076869;28;20780;-65
2023/03/07 08:37:56;;;;;;;20.10;17.10;;;3.80;99.90;;;;;;5077293;28;20761;-66
2023/03/07 08:40:24;;;;;;;22.07;16.73;;;3.90;99.90;;;;;;5077157;28;20913;-65
2023/03/07 08:42:53;;;;;;;19.90;16.90;;;3.80;99.90;;;;;;5077869;28;20472;-66
2023/03/07 08:45:22;;;;;;;19.50;16.57;;;3.80;99.90;;;;;;5078987;28;20504;-65
2023/03/07 08:47:52;;;;;;;16.27;13.80;;;3.70;99.90;;;;;;5078993;28;20461;-66
2023/03/07 08:50:19;;;;;;;16.30;14.50;;;3.70;99.90;;;;;;5079048;28;20511;-65
2023/03/07 08:52:47;;;;;;;17.50;14.20;;;3.70;99.90;;;;;;5078912;28;20457;-65
2023/03/07 08:55:15;;;;;;;17.23;13.80;;;3.60;99.90;;;;;;5079078;28;20453;-67
2023/03/07 08:57:44;;;;;;;17.57;14.90;;;3.60;99.90;;;;;;5078851;28;20460;-63
2023/03/07 09:00:12;;;;;;;17.50;14.30;;;3.60;99.90;;;;;;5078051;28;20518;-66
2023/03/07 09:02:41;;;;;;;16.60;14.53;;;3.60;99.90;;;;;;5078667;28;20484;-66
2023/03/07 09:05:08;;;;;;;17.70;13.87;;;3.60;99.90;;;;;;5077517;28;20498;-65
2023/03/07 09:07:35;;;;;;;18.00;13.70;;;3.60;99.90;;;;;;5078300;28;20465;-65
2023/03/07 09:10:03;;;;;;;16.97;14.53;;;3.60;99.90;;;;;;5078562;28;20457;-64
2023/03/07 09:12:30;;;;;;;17.57;14.00;;;3.60;99.90;;;;;;5079752;28;20468;-66
2023/03/07 09:14:57;;;;;;;17.27;12.93;;;3.60;99.90;;;;;;5079724;28;20465;-64
2023/03/07 09:17:24;;;;;;;16.47;13.63;;;3.70;99.90;;;;;;5079516;28;20474;-64
2023/03/07 09:19:52;;;;;;;14.20;11.87;;;3.70;99.90;;;;;;5079925;28;20457;-68
2023/03/07 09:22:19;;;;;;;15.63;12.17;;;3.70;99.90;;;;;;5079172;28;20472;-64
2023/03/07 09:24:47;;;;;;;15.97;12.30;;;3.70;99.90;;;;;;5080139;28;20486;-65
2023/03/07 09:27:14;;;;;;;16.60;12.43;;;3.70;99.90;;;;;;5078753;28;20545;-65
2023/03/07 09:29:41;;;;;;;16.00;12.47;;;3.70;99.90;;;;;;5077864;28;20457;-64
2023/03/07 09:32:08;;;;;;;18.40;13.97;;;3.80;99.90;;;;;;5077519;28;20465;-64
2023/03/07 09:34:35;;;;;;;14.43;11.77;;;3.70;99.90;;;;;;5077935;28;20458;-64
2023/03/07 09:37:05;;;;;;;13.00;11.50;;;3.70;99.90;;;;;;5077415;28;20465;-66
2023/03/07 09:39:32;;;;;;;16.20;11.80;;;3.70;99.90;;;;;;5078193;28;20457;-66
2023/03/07 09:42:10;;;;;;;10.53;9.43;;;3.80;99.90;;;;;;5077638;28;20850;-66
2023/03/07 09:45:04;;;;;;;12.90;9.33;;;3.70;99.90;;;;;;5078060;28;20968;-67
2023/03/07 09:47:51;;;;;;;14.10;10.43;;;3.80;99.90;;;;;;5078519;28;20894;-63
2023/03/07 09:50:27;;;;;;;15.33;10.63;;;3.80;99.90;;;;;;5079536;28;20571;-66
2023/03/07 09:53:02;;;;;;;13.53;10.70;;;3.80;99.90;;;;;;5078606;28;20460;-66
2023/03/07 09:55:31;;;;;;;12.30;10.20;;;3.80;99.90;;;;;;5079398;28;20936;-67
2023/03/07 09:58:04;;;;;;;15.43;10.83;;;3.80;99.90;;;;;;5078972;28;20461;-66
2023/03/07 10:00:35;;;;;;;14.60;11.03;;;3.80;99.90;;;;;;5079063;28;20890;-66
2023/03/07 10:03:17;;;;;;;12.17;9.53;;;3.80;99.90;;;;;;5077133;28;20472;-66
2023/03/07 10:05:48;;;;;;;13.00;10.50;;;3.90;99.90;;;;;;5079045;28;20539;-65
2023/03/07 10:08:20;;;;;;;11.83;8.83;;;3.90;99.90;;;;;;5079625;28;20897;-64
2023/03/07 10:10:55;;;;;;;10.27;8.40;;;3.90;99.90;;;;;;5079473;28;20461;-65
2023/03/07 10:13:36;;;;;;;9.30;8.03;;;3.90;99.90;;;;;;5079381;28;20467;-65
2023/03/07 10:16:11;;;;;;;11.60;7.70;;;4.00;99.90;;;;;;5059559;28;20473;-63
2023/03/07 10:18:49;;;;;;;9.57;7.27;;;4.00;99.90;;;;;;5064845;28;20485;-66
2023/03/07 10:21:23;;;;;;;10.40;7.13;;;4.10;99.90;;;;;;5078325;28;20462;-66
2023/03/07 10:24:24;;;;;;;7.27;6.20;;;3.90;99.90;;;;;;5078194;28;20461;-65
2023/03/07 10:27:00;;;;;;;6.37;4.97;;;3.90;99.90;;;;;;5032790;28;20480;-65
2023/03/07 10:29:32;;;;;;;6.07;4.57;;;3.80;99.90;;;;;;5067328;28;20471;-66
2023/03/07 10:32:12;;;;;;;5.57;3.27;;;3.60;99.90;;;;;;5078051;28;20464;-66
2023/03/07 10:34:39;;;;;;;4.70;3.47;;;3.50;99.90;;;;;;5077575;28;20488;-66
2023/03/07 10:37:16;;;;;;;3.77;3.10;;;3.40;99.90;;;;;;5078259;28;20751;-66
2023/03/07 10:39:50;;;;;;;4.20;3.23;;;3.50;99.90;;;;;;5077906;28;20464;-65
2023/03/07 10:42:19;;;;;;;3.73;3.00;;;3.40;99.90;;;;;;5077859;28;20897;-65
2023/03/07 10:44:47;;;;;;;4.60;3.17;;;3.40;99.90;;;;;;5078559;28;20776;-65
2023/03/07 10:47:20;;;;;;;4.47;3.40;;;3.30;99.90;;;;;;5077369;28;20887;-66
2023/03/07 10:49:49;;;;;;;4.20;3.80;;;3.40;99.90;;;;;;5077782;28;20523;-66
2023/03/07 10:52:27;;;;;;;5.63;5.00;;;3.30;99.90;;;;;;5078258;28;20472;-66
2023/03/07 10:55:32;;;;;;;8.10;6.03;;;3.40;99.90;;;;;;5077639;28;20445;-65
2023/03/07 10:58:18;;;;;;;8.40;6.67;;;3.30;99.90;;;;;;5057615;28;20770;-65
2023/03/07 11:00:57;;;;;;;9.80;7.23;;;3.20;99.90;;;;;;5067200;28;20470;-66
2023/03/07 11:03:27;;;;;;;8.80;6.70;;;3.20;99.90;;;;;;5077841;28;20475;-65
2023/03/07 11:05:54;;;;;;;11.33;8.27;;;3.20;99.90;;;;;;5077613;28;20493;-65
2023/03/07 11:08:30;;;;;;;9.03;7.60;;;3.20;99.90;;;;;;5075787;28;20465;-66
2023/03/07 11:10:59;;;;;;;12.03;8.13;;;3.40;99.90;;;;;;5076170;28;20721;-65
2023/03/07 11:13:28;;;;;;;10.50;7.97;;;3.30;99.90;;;;;;5074984;28;20503;-65
2023/03/07 11:16:14;;;;;;;9.40;7.53;;;3.20;99.90;;;;;;5075523;28;20847;-65
2023/03/07 11:18:43;;;;;;;8.97;7.60;;;3.00;99.90;;;;;;5075013;28;20814;-66
2023/03/07 11:21:30;;;;;;;9.23;7.33;;;3.00;99.90;;;;;;5075795;28;20458;-66
2023/03/07 11:24:05;;;;;;;11.27;8.03;;;3.00;99.90;;;;;;5077486;28;20436;-65
2023/03/07 11:26:39;;;;;;;10.83;7.60;;;3.10;99.90;;;;;;5077813;28;20489;-65
2023/03/07 11:29:12;;;;;;;10.63;8.33;;;3.10;99.90;;;;;;5076118;28;20472;-65
2023/03/07 11:31:51;;;;;;;9.93;7.57;;;3.10;99.90;;;;;;5076612;28;20462;-65
2023/03/07 11:34:34;;;;;;;9.00;7.03;;;3.10;99.90;;;;;;5076400;28;20468;-65
2023/03/07 11:37:11;;;;;;;9.13;7.57;;;3.10;99.90;;;;;;5074135;28;20480;-65
2023/03/07 11:39:46;;;;;;;8.80;6.80;;;3.10;99.90;;;;;;5076928;28;20819;-65
2023/03/07 11:42:17;;;;;;;8.33;6.37;;;3.10;99.90;;;;;;5077677;28;20459;-65
2023/03/07 11:44:51;;;;;;;10.27;7.83;;;3.00;99.90;;;;;;5076600;28;20930;-65
2023/03/07 11:47:30;;;;;;;9.50;7.47;;;3.00;99.90;;;;;;5077431;28;20460;-65
2023/03/07 11:50:06;;;;;;;9.47;7.67;;;3.00;99.90;;;;;;5077532;28;20889;-65
2023/03/07 11:52:48;;;;;;;9.33;6.83;;;3.00;99.90;;;;;;5077525;28;20555;-65
2023/03/07 11:55:26;;;;;;;9.00;6.97;;;3.00;99.90;;;;;;5076977;28;20515;-65
2023/03/07 11:58:17;;;;;;;9.03;6.67;;;2.90;99.90;;;;;;5077442;28;20469;-65
2023/03/07 12:00:55;;;;;;;9.97;7.63;;;2.80;99.90;;;;;;5077764;28;20763;-66
2023/03/07 12:03:37;;;;;;;7.87;6.50;;;2.80;99.90;;;;;;5077058;28;20472;-65
2023/03/07 12:06:29;;;;;;;8.90;7.40;;;2.90;99.90;;;;;;5076822;28;20952;-65
2023/03/07 12:09:24;;;;;;;10.13;7.93;;;2.90;99.90;;;;;;5076908;28;20465;-65
2023/03/07 12:12:06;;;;;;;8.20;7.20;;;2.90;99.90;;;;;;5075505;28;20457;-65
2023/03/07 12:14:45;;;;;;;10.07;7.60;;;2.90;99.90;;;;;;5077143;28;20565;-66
2023/03/07 12:17:28;;;;;;;8.23;7.40;;;2.90;99.90;;;;;;5076316;28;20461;-66
2023/03/07 12:20:20;;;;;;;9.10;7.47;;;3.00;99.90;;;;;;5076908;28;20881;-66
2023/03/07 12:23:04;;;;;;;9.20;7.20;;;3.10;99.90;;;;;;5072021;28;20461;-66
2023/03/07 12:25:35;;;;;;;9.87;7.70;;;3.00;99.90;;;;;;5092933;28;20496;-66
2023/03/07 12:28:10;;;;;;;9.73;8.10;;;2.90;99.90;;;;;;5076323;28;20467;-65
2023/03/07 12:30:49;;;;;;;9.00;7.50;;;3.10;99.90;;;;;;5076685;28;20452;-66
2023/03/07 12:33:23;;;;;;;11.10;9.03;;;3.20;99.90;;;;;;5075057;28;20519;-65
2023/03/07 12:35:54;;;;;;;8.10;6.90;;;3.10;99.90;;;;;;5077064;28;20457;-65
2023/03/07 12:38:32;;;;;;;9.20;7.20;;;3.20;99.90;;;;;;5076919;28;20509;-65
2023/03/07 12:41:03;;;;;;;7.50;6.53;;;3.30;99.90;;;;;;5076566;28;20757;-65
2023/03/07 12:43:37;;;;;;;8.40;6.93;;;3.30;99.90;;;;;;5075530;28;20457;-65
2023/03/07 12:46:16;;;;;;;9.43;6.43;;;3.10;99.90;;;;;;5078365;28;20486;-65
2023/03/07 12:48:48;;;;;;;7.70;6.27;;;3.10;99.90;;;;;;5080704;28;20468;-65
2023/03/07 12:51:21;;;;;;;8.80;6.23;;;3.20;99.90;;;;;;5080747;28;20914;-66
2023/03/07 12:53:53;;;;;;;7.40;6.20;;;3.20;99.90;;;;;;5079643;28;20472;-66
2023/03/07 12:56:26;;;;;;;8.00;6.37;;;3.00;99.90;;;;;;5080467;28;20465;-66
2023/03/07 12:58:58;;;;;;;8.20;6.97;;;3.10;99.90;;;;;;5079970;28;20480;-66